createdAt,value
2023-09-05T00:02:06.471Z,26.19
2023-09-05T00:05:10.356Z,26.19
2023-09-05T00:08:13.031Z,26.19
2023-09-05T00:11:15.630Z,26.18
2023-09-05T00:14:21.614Z,26.18
2023-09-05T00:17:24.398Z,26.16
2023-09-05T00:20:27.788Z,26.17
2023-09-05T00:23:30.349Z,26.16
2023-09-05T00:26:32.963Z,26.15
2023-09-05T00:29:36.853Z,26.14
2023-09-05T00:32:41.827Z,26.14
2023-09-05T00:35:44.866Z,26.12
2023-09-05T00:38:49.016Z,26.12
2023-09-05T00:41:51.524Z,26.11
2023-09-05T00:44:56.797Z,26.11
2023-09-05T00:48:02.184Z,26.11
2023-09-05T00:51:04.759Z,26.10
2023-09-05T00:54:08.057Z,26.09
2023-09-05T00:57:12.337Z,26.08
2023-09-05T01:00:18.938Z,26.08
2023-09-05T01:03:21.680Z,26.08
2023-09-05T01:06:27.083Z,26.09
2023-09-05T01:09:35.737Z,26.07
2023-09-05T01:12:38.398Z,26.08
2023-09-05T01:15:43.737Z,26.07
2023-09-05T01:18:46.382Z,26.07
2023-09-05T01:22:03.857Z,26.07
2023-09-05T01:25:09.338Z,26.05
2023-09-05T01:28:14.113Z,26.04
2023-09-05T01:31:17.004Z,26.04
2023-09-05T01:34:19.606Z,26.04
2023-09-05T01:37:22.222Z,26.03
2023-09-05T01:40:26.297Z,26.02
2023-09-05T01:43:28.887Z,26.01
2023-09-05T01:46:31.504Z,26.02
2023-09-05T01:49:34.080Z,26.01
2023-09-05T01:52:36.596Z,26.01
2023-09-05T01:55:40.655Z,26.00
2023-09-05T01:58:43.244Z,26.00
2023-09-05T02:01:45.804Z,26.00
2023-09-05T02:04:48.444Z,25.99
2023-09-05T02:07:50.970Z,25.99
2023-09-05T02:10:54.870Z,25.97
2023-09-05T02:13:57.347Z,25.96
2023-09-05T02:16:59.953Z,25.95
2023-09-05T02:20:02.590Z,25.96
2023-09-05T02:23:05.621Z,25.96
2023-09-05T02:26:10.129Z,25.96
2023-09-05T02:29:12.668Z,25.93
2023-09-05T02:32:15.193Z,25.93
2023-09-05T02:35:17.839Z,25.93
2023-09-05T02:38:20.450Z,25.93
2023-09-05T02:41:24.392Z,25.91
2023-09-05T02:44:26.958Z,25.91
2023-09-05T02:47:29.563Z,25.91
2023-09-05T02:50:32.167Z,25.90
2023-09-05T02:53:34.988Z,25.90
2023-09-05T02:56:38.873Z,25.87
2023-09-05T02:59:41.466Z,25.87
2023-09-05T03:02:44.970Z,25.86
2023-09-05T03:05:47.694Z,25.85
2023-09-05T03:08:50.299Z,25.85
2023-09-05T03:11:54.225Z,25.84
2023-09-05T03:14:56.749Z,25.84
2023-09-05T03:17:59.337Z,25.83
2023-09-05T03:21:02.041Z,25.82
2023-09-05T03:24:05.026Z,25.81
2023-09-05T03:27:09.096Z,25.79
2023-09-05T03:30:12.809Z,25.78
2023-09-05T03:33:15.428Z,25.79
2023-09-05T03:36:18.146Z,25.79
2023-09-05T03:39:20.732Z,25.79
2023-09-05T03:42:24.704Z,25.78
2023-09-05T03:45:28.491Z,25.77
2023-09-05T03:48:31.225Z,25.77
2023-09-05T03:51:33.827Z,25.70
2023-09-05T03:54:36.361Z,25.48
2023-09-05T03:57:41.303Z,25.29
2023-09-05T04:00:43.888Z,25.14
2023-09-05T04:03:47.646Z,25.06
2023-09-05T04:06:50.245Z,24.96
2023-09-05T04:09:54.311Z,24.90
2023-09-05T04:12:58.248Z,24.87
2023-09-05T04:16:04.337Z,24.76
2023-09-05T04:19:07.530Z,24.72
2023-09-05T04:22:10.093Z,24.66
2023-09-05T04:25:12.818Z,24.56
2023-09-05T04:28:17.750Z,24.51
2023-09-05T04:31:20.846Z,24.50
2023-09-05T04:34:23.670Z,24.47
2023-09-05T04:37:26.520Z,24.44
2023-09-05T04:40:29.211Z,24.36
2023-09-05T04:43:33.222Z,24.33
2023-09-05T04:46:39.387Z,24.29
2023-09-05T04:49:42.035Z,24.25
2023-09-05T04:52:44.569Z,24.22
2023-09-05T04:55:49.155Z,24.17
2023-09-05T04:58:53.157Z,24.08
2023-09-05T05:01:55.708Z,24.06
2023-09-05T05:04:58.289Z,24.03
2023-09-05T05:08:00.941Z,23.99
2023-09-05T05:11:05.168Z,24.00
2023-09-05T05:14:09.051Z,23.99
2023-09-05T05:17:14.114Z,23.95
2023-09-05T05:20:19.220Z,23.91
2023-09-05T05:23:21.816Z,23.87
2023-09-05T05:26:24.529Z,23.85
2023-09-05T05:29:33.227Z,23.87
2023-09-05T05:32:36.106Z,23.96
2023-09-05T05:35:39.006Z,24.05
2023-09-05T05:38:41.903Z,24.14
2023-09-05T05:41:44.557Z,24.20
2023-09-05T05:44:48.628Z,24.28
2023-09-05T05:47:51.234Z,24.35
2023-09-05T05:50:53.958Z,24.43
2023-09-05T05:53:56.487Z,24.49
2023-09-05T05:56:59.046Z,24.55
2023-09-05T06:00:05.780Z,24.60
2023-09-05T06:03:12.253Z,24.66
2023-09-05T06:06:15.140Z,24.72
2023-09-05T06:09:19.601Z,24.77
2023-09-05T06:12:22.249Z,24.80
2023-09-05T06:15:26.198Z,24.83
2023-09-05T06:18:29.343Z,24.86
2023-09-05T06:21:32.200Z,24.90
2023-09-05T06:24:36.221Z,24.93
2023-09-05T06:27:39.727Z,24.97
2023-09-05T06:30:43.620Z,25.00
2023-09-05T06:33:46.302Z,25.01
2023-09-05T06:36:48.876Z,25.03
2023-09-05T06:39:51.408Z,25.06
2023-09-05T06:42:54.061Z,25.08
2023-09-05T06:46:03.796Z,25.10
2023-09-05T06:49:06.569Z,25.14
2023-09-05T06:52:09.166Z,25.15
2023-09-05T06:55:13.383Z,25.19
2023-09-05T06:58:16.307Z,25.21
2023-09-05T07:01:20.322Z,25.23
2023-09-05T07:04:23.002Z,25.25
2023-09-05T07:07:25.685Z,25.28
2023-09-05T07:10:28.585Z,25.30
2023-09-05T07:13:31.045Z,25.33
2023-09-05T07:16:35.006Z,25.36
2023-09-05T07:19:37.915Z,25.37
2023-09-05T07:22:40.609Z,25.40
2023-09-05T07:25:43.231Z,25.40
2023-09-05T07:28:47.919Z,25.42
2023-09-05T07:31:52.078Z,25.44
2023-09-05T07:34:55.765Z,25.47
2023-09-05T07:37:58.354Z,25.48
2023-09-05T07:41:04.365Z,25.50
2023-09-05T07:44:07.263Z,25.53
2023-09-05T07:47:11.228Z,25.55
2023-09-05T07:50:13.824Z,25.56
2023-09-05T07:53:16.665Z,25.59
2023-09-05T07:56:19.284Z,25.60
2023-09-05T07:59:21.863Z,25.62
2023-09-05T08:02:25.758Z,25.64
2023-09-05T08:05:28.308Z,25.66
2023-09-05T08:08:30.816Z,25.67
2023-09-05T08:11:33.492Z,25.70
2023-09-05T08:14:36.004Z,25.71
2023-09-05T08:17:40.124Z,25.72
2023-09-05T08:20:44.081Z,25.74
2023-09-05T08:23:46.821Z,25.75
2023-09-05T08:26:49.398Z,25.77
2023-09-05T08:29:52.003Z,25.79
2023-09-05T08:32:56.511Z,25.80
2023-09-05T08:35:59.163Z,25.81
2023-09-05T08:39:01.707Z,25.82
2023-09-05T08:42:06.099Z,25.82
2023-09-05T08:45:13.480Z,25.84
2023-09-05T08:48:17.506Z,25.85
2023-09-05T08:51:20.544Z,25.86
2023-09-05T08:54:24.663Z,25.87
2023-09-05T08:57:27.984Z,25.88
2023-09-05T09:00:30.524Z,25.89
2023-09-05T09:03:36.834Z,25.90
2023-09-05T09:06:39.569Z,25.91
2023-09-05T09:09:42.129Z,25.91
2023-09-05T09:12:44.745Z,25.93
2023-09-05T09:15:48.036Z,25.94
2023-09-05T09:19:01.350Z,25.94
2023-09-05T09:22:05.050Z,25.96
2023-09-05T09:25:13.122Z,25.96
2023-09-05T09:28:23.013Z,25.97
2023-09-05T09:31:27.264Z,25.98
2023-09-05T09:34:31.928Z,25.99
2023-09-05T09:37:35.243Z,26.00
2023-09-05T09:40:38.280Z,26.00
2023-09-05T09:43:40.898Z,26.00
2023-09-05T09:46:44.523Z,26.01
2023-09-05T09:49:50.194Z,26.02
2023-09-05T09:52:54.422Z,26.03
2023-09-05T09:55:58.175Z,26.03
2023-09-05T09:59:01.955Z,26.04
2023-09-05T10:02:12.876Z,26.04
2023-09-05T10:05:20.352Z,26.05
2023-09-05T10:08:23.190Z,26.06
2023-09-05T10:11:25.636Z,26.07
2023-09-05T10:14:28.817Z,26.06
2023-09-05T10:17:31.928Z,26.06
2023-09-05T10:20:36.929Z,26.07
2023-09-05T10:23:39.864Z,26.06
2023-09-05T10:26:42.317Z,26.10
2023-09-05T10:29:47.163Z,26.10
2023-09-05T10:32:50.446Z,26.10
2023-09-05T10:35:54.428Z,26.09
2023-09-05T10:38:58.590Z,26.10
2023-09-05T10:42:01.213Z,26.10
2023-09-05T10:45:18.637Z,26.11
2023-09-05T10:48:34.068Z,26.13
2023-09-05T10:51:37.985Z,26.12
2023-09-05T10:54:40.630Z,26.12
2023-09-05T10:57:43.688Z,26.14
2023-09-05T11:00:49.256Z,26.14
2023-09-05T11:03:51.919Z,26.13
2023-09-05T11:07:03.962Z,26.14
2023-09-05T11:10:13.014Z,26.14
2023-09-05T11:13:16.045Z,26.14
2023-09-05T11:16:18.697Z,26.15
2023-09-05T11:19:39.004Z,26.15
2023-09-05T11:22:42.967Z,26.15
2023-09-05T11:25:47.545Z,26.16
2023-09-05T11:28:52.432Z,26.16
2023-09-05T11:32:00.408Z,26.16
2023-09-05T11:35:04.777Z,26.17
2023-09-05T11:38:08.822Z,26.15
2023-09-05T11:41:11.360Z,26.16
2023-09-05T11:44:14.016Z,26.18
2023-09-05T11:47:17.008Z,26.18
2023-09-05T11:50:20.556Z,26.17
2023-09-05T11:53:24.728Z,26.18
2023-09-05T11:56:27.659Z,26.18
2023-09-05T11:59:30.776Z,26.18
2023-09-05T12:02:33.440Z,26.18
2023-09-05T12:05:37.797Z,26.20
2023-09-05T12:08:41.973Z,26.19
2023-09-05T12:11:44.851Z,26.19
2023-09-05T12:14:55.107Z,26.20
2023-09-05T12:17:57.773Z,26.20
2023-09-05T12:21:03.746Z,26.20
2023-09-05T12:24:21.650Z,26.22
2023-09-05T12:27:29.529Z,26.22
2023-09-05T12:30:33.068Z,26.22
2023-09-05T12:33:35.686Z,26.22
2023-09-05T12:36:40.651Z,26.23
2023-09-05T12:39:44.751Z,26.25
2023-09-05T12:42:47.296Z,26.24
2023-09-05T12:45:50.626Z,26.26
2023-09-05T12:48:55.244Z,26.27
2023-09-05T12:51:57.903Z,26.26
2023-09-05T12:55:01.887Z,26.27
2023-09-05T12:58:05.504Z,26.29
2023-09-05T13:01:08.120Z,26.29
2023-09-05T13:04:12.116Z,26.30
2023-09-05T13:07:14.688Z,26.31
2023-09-05T13:10:18.593Z,26.32
2023-09-05T13:13:21.139Z,26.33
2023-09-05T13:16:23.732Z,26.34
2023-09-05T13:19:26.411Z,26.35
2023-09-05T13:22:29.301Z,26.36
2023-09-05T13:25:35.138Z,26.38
2023-09-05T13:28:37.988Z,26.38
2023-09-05T13:31:40.562Z,26.40
2023-09-05T13:34:43.265Z,26.40
2023-09-05T13:37:45.864Z,26.41
2023-09-05T13:40:49.832Z,26.42
2023-09-05T13:43:52.371Z,26.42
2023-09-05T13:46:55.318Z,26.44
2023-09-05T13:49:57.910Z,26.46
2023-09-05T13:53:00.470Z,26.46
2023-09-05T13:56:06.719Z,26.49
2023-09-05T13:59:10.292Z,26.50
2023-09-05T14:02:13.037Z,26.52
2023-09-05T14:05:16.079Z,26.53
2023-09-05T14:08:18.684Z,26.54
2023-09-05T14:11:22.694Z,26.56
2023-09-05T14:14:25.294Z,26.55
2023-09-05T14:17:28.393Z,26.57
2023-09-05T14:20:30.956Z,26.57
2023-09-05T14:23:35.134Z,26.59
2023-09-05T14:26:38.994Z,26.59
2023-09-05T14:29:41.610Z,26.61
2023-09-05T14:32:44.237Z,26.62
2023-09-05T14:35:46.805Z,26.63
2023-09-05T14:38:49.763Z,26.63
2023-09-05T14:41:53.788Z,26.64
2023-09-05T14:44:56.402Z,26.64
2023-09-05T14:47:59.048Z,26.65
2023-09-05T14:51:01.620Z,26.66
2023-09-05T14:54:04.163Z,26.67
2023-09-05T14:57:08.129Z,26.68
2023-09-05T15:00:12.706Z,26.68
2023-09-05T15:03:15.952Z,26.68
2023-09-05T15:06:18.672Z,26.70
2023-09-05T15:09:22.295Z,26.70
2023-09-05T15:12:26.359Z,26.69
2023-09-05T15:15:29.035Z,26.71
2023-09-05T15:18:31.958Z,26.72
2023-09-05T15:21:37.138Z,26.73
2023-09-05T15:24:41.229Z,26.73
2023-09-05T15:27:47.910Z,26.74
2023-09-05T15:30:50.568Z,26.76
2023-09-05T15:33:53.805Z,26.78
2023-09-05T15:36:56.432Z,26.78
2023-09-05T15:39:59.357Z,26.84
2023-09-05T15:43:03.615Z,26.84
2023-09-05T15:46:06.397Z,26.85
2023-09-05T15:49:08.933Z,26.87
2023-09-05T15:52:11.592Z,26.87
2023-09-05T15:55:14.262Z,26.87
2023-09-05T15:58:18.351Z,26.88
2023-09-05T16:01:21.085Z,26.89
2023-09-05T16:04:23.723Z,26.90
2023-09-05T16:07:26.495Z,26.90
2023-09-05T16:10:30.195Z,26.90
2023-09-05T16:13:34.272Z,26.91
2023-09-05T16:16:36.882Z,26.92
2023-09-05T16:19:39.548Z,26.93
2023-09-05T16:22:42.105Z,26.94
2023-09-05T16:25:44.728Z,26.94
2023-09-05T16:28:48.611Z,26.93
2023-09-05T16:31:51.258Z,26.94
2023-09-05T16:34:56.146Z,26.94
2023-09-05T16:37:58.736Z,26.93
2023-09-05T16:41:01.255Z,26.93
2023-09-05T16:44:06.334Z,26.91
2023-09-05T16:47:09.287Z,26.90
2023-09-05T16:50:12.279Z,26.88
2023-09-05T16:53:15.563Z,26.87
2023-09-05T16:56:18.556Z,26.84
2023-09-05T16:59:22.480Z,26.83
2023-09-05T17:02:25.177Z,26.82
2023-09-05T17:05:27.634Z,26.81
2023-09-05T17:08:30.873Z,26.79
2023-09-05T17:11:34.695Z,26.77
2023-09-05T17:14:39.273Z,26.75
2023-09-05T17:17:42.653Z,26.74
2023-09-05T17:20:45.231Z,26.73
2023-09-05T17:23:47.837Z,26.72
2023-09-05T17:26:50.476Z,26.71
2023-09-05T17:29:54.392Z,26.70
2023-09-05T17:32:57.934Z,26.69
2023-09-05T17:36:02.185Z,26.69
2023-09-05T17:39:05.834Z,26.68
2023-09-05T17:42:08.431Z,26.67
2023-09-05T17:45:13.229Z,26.67
2023-09-05T17:48:23.082Z,26.67
2023-09-05T17:51:25.834Z,26.66
2023-09-05T17:54:28.439Z,26.64
2023-09-05T17:57:31.105Z,26.64
2023-09-05T18:00:36.159Z,26.64
2023-09-05T18:03:39.019Z,26.63
2023-09-05T18:06:41.919Z,26.63
2023-09-05T18:09:45.548Z,26.63
2023-09-05T18:12:48.324Z,26.62
2023-09-05T18:15:52.159Z,26.62
2023-09-05T18:18:54.986Z,26.60
2023-09-05T18:21:57.731Z,26.59
2023-09-05T18:25:01.509Z,26.58
2023-09-05T18:28:04.346Z,26.58
2023-09-05T18:31:08.968Z,26.57
2023-09-05T18:34:31.916Z,26.58
2023-09-05T18:37:34.346Z,26.58
2023-09-05T18:40:36.888Z,26.57
2023-09-05T18:43:39.276Z,26.56
2023-09-05T18:46:43.122Z,26.56
2023-09-05T18:49:46.152Z,26.56
2023-09-05T18:52:49.436Z,26.56
2023-09-05T18:55:52.748Z,26.54
2023-09-05T18:58:55.212Z,26.55
2023-09-05T19:01:59.255Z,26.55
2023-09-05T19:05:01.770Z,26.54
2023-09-05T19:08:04.483Z,26.54
2023-09-05T19:11:06.920Z,26.54
2023-09-05T19:14:09.363Z,26.53
2023-09-05T19:17:13.117Z,26.52
2023-09-05T19:20:15.621Z,26.52
2023-09-05T19:23:18.088Z,26.53
2023-09-05T19:26:20.523Z,26.52
2023-09-05T19:29:24.437Z,26.52
2023-09-05T19:32:28.368Z,26.52
2023-09-05T19:35:31.692Z,26.52
2023-09-05T19:38:34.191Z,26.52
2023-09-05T19:41:36.627Z,26.51
2023-09-05T19:44:40.295Z,26.51
2023-09-05T19:47:44.080Z,26.51
2023-09-05T19:50:46.660Z,26.51
2023-09-05T19:53:49.206Z,26.50
2023-09-05T19:56:51.828Z,26.50
2023-09-05T19:59:56.076Z,26.48
2023-09-05T20:03:01.222Z,26.48
2023-09-05T20:06:04.366Z,26.48
2023-09-05T20:09:08.308Z,26.47
2023-09-05T20:12:10.861Z,26.45
2023-09-05T20:15:13.448Z,26.45
2023-09-05T20:18:18.724Z,26.45
2023-09-05T20:21:21.249Z,26.43
2023-09-05T20:24:23.757Z,26.43
2023-09-05T20:27:26.335Z,26.42
2023-09-05T20:30:28.796Z,26.42
2023-09-05T20:33:32.808Z,26.40
2023-09-05T20:36:35.549Z,26.38
2023-09-05T20:39:38.022Z,26.38
2023-09-05T20:42:40.509Z,26.38
2023-09-05T20:45:42.967Z,26.37
2023-09-05T20:48:46.915Z,26.37
2023-09-05T20:51:49.575Z,26.36
2023-09-05T20:54:52.305Z,26.35
2023-09-05T20:57:54.847Z,26.34
2023-09-05T21:00:57.535Z,26.34
2023-09-05T21:04:01.579Z,26.33
2023-09-05T21:07:04.036Z,26.32
2023-09-05T21:10:07.429Z,26.32
2023-09-05T21:13:11.062Z,26.31
2023-09-05T21:16:13.484Z,26.31
2023-09-05T21:19:17.190Z,26.31
2023-09-05T21:22:23.097Z,26.30
2023-09-05T21:25:25.534Z,26.29
2023-09-05T21:28:28.284Z,26.29
2023-09-05T21:31:31.082Z,26.28
2023-09-05T21:34:34.897Z,26.27
2023-09-05T21:37:37.323Z,26.27
2023-09-05T21:40:39.744Z,26.28
2023-09-05T21:43:42.189Z,26.27
2023-09-05T21:46:44.658Z,26.27
2023-09-05T21:49:48.427Z,26.26
2023-09-05T21:52:50.874Z,26.25
2023-09-05T21:55:53.305Z,26.23
2023-09-05T21:58:55.713Z,26.23
2023-09-05T22:01:58.189Z,26.22
2023-09-05T22:05:04.154Z,26.22
2023-09-05T22:08:07.857Z,26.22
2023-09-05T22:11:10.424Z,26.22
2023-09-05T22:14:13.241Z,26.22
2023-09-05T22:17:15.652Z,26.21
2023-09-05T22:20:23.024Z,26.19
2023-09-05T22:23:25.534Z,26.18
2023-09-05T22:26:27.951Z,26.18
2023-09-05T22:29:32.471Z,26.19
2023-09-05T22:32:34.911Z,26.19
2023-09-05T22:35:38.654Z,26.18
2023-09-05T22:38:41.109Z,26.16
2023-09-05T22:41:43.543Z,26.16
2023-09-05T22:44:46.218Z,26.15
2023-09-05T22:47:48.876Z,26.16
2023-09-05T22:50:52.847Z,26.15
2023-09-05T22:53:55.316Z,26.14
2023-09-05T22:56:58.319Z,26.15
2023-09-05T23:00:00.809Z,26.16
2023-09-05T23:03:03.374Z,26.13
2023-09-05T23:06:07.314Z,26.14
2023-09-05T23:09:09.762Z,26.13
2023-09-05T23:12:12.224Z,26.12
2023-09-05T23:15:14.757Z,26.11
2023-09-05T23:18:17.607Z,26.11
2023-09-05T23:21:21.585Z,26.09
2023-09-05T23:24:24.422Z,26.08
2023-09-05T23:27:26.928Z,26.07
2023-09-05T23:30:30.193Z,26.08
2023-09-05T23:33:32.762Z,26.07
2023-09-05T23:36:36.681Z,26.07
2023-09-05T23:39:39.187Z,26.06
2023-09-05T23:42:43.257Z,26.07
2023-09-05T23:45:57.772Z,26.06
2023-09-05T23:49:01.512Z,26.05
2023-09-05T23:52:06.462Z,26.04
2023-09-05T23:55:09.048Z,26.04
2023-09-05T23:58:11.590Z,26.03
